Aérodrome :
LOGIN :

S'inscrire | Disclaimer

   EN    FR    IT 

 










Légende :    VFR   VFR Marginal   IFR   IFR Intensif   IFR Très Intensif
Visi : 
Plafond : 
>= 8 km
>= 3000ft
5 à 8 km
1000 à 3000 ft
1500m à 5 km
500 à 1000 ft
800 à 1500m
200 à 500 ft
< 800m
< 200 ft
Symboles :   Orages  Brouillard  Fortes neiges  Fortes précipitations  Vent > 20 kt
SIGMETs :   Divers  Orages  Givrage  Turbulence  Onde Orograph.  Cendres Volcan.







- Altitude de l'aérodrome : 427 ft
- Code IATA : KBP


UKBB - Boryspil'

DERNIER METAR :
  • 170400Z 26002MPS CAVOK 12/05 Q1009 R88/CLRD// NOSIG

METARs EXPIRÉS :
  • 170330Z 26002MPS CAVOK 12/05 Q1009 R88/CLRD// NOSIG
  • 170300Z 26002MPS CAVOK 12/05 Q1009 R88/D NOSIG
  • 170230Z 26002MPS CAVOK 13/05 Q1009 R88/CLRD// NOSIG
  • 170200Z 25002MPS CAVOK 13/06 Q1009 R88/D NOSIG
  • 170130Z 24002MPS CAVOK 13/05 Q1009 R88/D NOSIG

TAF TAF UKBB
Valide du 17 à 00h jusqu'au 18 à 00h UTC


162302Z 1700/1724 27005G10MPS 9999 SCT030
TEMPO 1700/1706 29003G08MPS
TEMPO 1706/1716 29008G13MPS
Pas de NOTAMs connus pour ce terrain.



MET'MAP, la Météo Aéronautique d'un coup d'oeil ! - Copyright ORBIFLY Décembre 2007 - Disclaimer

ORBIFLY MET'MAP TEAM :

Programmation & Développement : Alexandra Zaïnal
Conception & Développement : Baudouin d'Aumeries
Co-Programmation & Développement : Marc-Olivier Méhu
Soutien technique & logistique : Manuel Goepfert

Contact : metmap@orbifly.com




SOURCES & CREDITS :

   NOAA